Time;durP1;ratioP1;P1;durP2;ratioP2;P2;SDS_P1;SDS_P2;PMS_P1;PMS_P2;Temp;Humidity;BMP_temperature;BMP_pressure;BME280_temperature;BME280_humidity;BME280_pressure;Samples;Min_cycle;Max_cycle;Signal;HPM_P1;HPM_P2
2022/10/05 00:01:29;;;;;;;15.32;7.80;;;15.50;99.90;;;;;;5096874;28;20123;-83
2022/10/05 00:04:17;;;;;;;10.27;7.68;;;15.30;99.90;;;;;;5114188;28;20047;-83
2022/10/05 00:07:03;;;;;;;9.18;7.05;;;15.50;99.90;;;;;;5114078;28;20058;-83
2022/10/05 00:09:30;;;;;;;11.48;7.30;;;15.40;99.90;;;;;;5103380;27;20125;-84
2022/10/05 00:11:56;;;;;;;9.98;7.03;;;;;;;;;;5117485;27;20055;-86
2022/10/05 00:14:29;;;;;;;8.90;6.10;;;15.20;99.90;;;;;;5134908;27;20407;-86
2022/10/05 00:16:56;;;;;;;14.18;7.05;;;15.30;99.90;;;;;;5100671;27;20410;-85
2022/10/05 00:19:42;;;;;;;12.70;7.05;;;15.20;99.90;;;;;;5100225;27;20065;-87
2022/10/05 00:22:08;;;;;;;9.25;7.07;;;;;;;;;;5117243;27;20085;-87
2022/10/05 00:24:35;;;;;;;8.85;7.22;;;;;;;;;;5134399;27;20078;-86
2022/10/05 00:27:11;;;;;;;11.48;6.57;;;15.50;99.90;;;;;;5100193;27;20137;-87
2022/10/05 00:29:37;;;;;;;8.32;7.18;;;;;;;;;;5117157;27;20132;-87
2022/10/05 00:32:03;;;;;;;12.18;7.13;;;15.70;99.90;;;;;;5134183;27;20074;-87
2022/10/05 00:34:32;;;;;;;9.07;6.78;;;15.20;99.90;;;;;;5116968;27;20051;-86
2022/10/05 00:36:58;;;;;;;12.77;6.53;;;;;;;;;;5134113;27;20039;-87
2022/10/05 00:39:24;;;;;;;9.80;6.35;;;15.40;99.90;;;;;;5117768;27;20043;-87
2022/10/05 00:42:15;;;;;;;7.88;6.43;;;15.30;99.90;;;;;;5099861;27;20054;-86
2022/10/05 00:44:41;;;;;;;11.68;6.55;;;;;;;;;;5117103;27;20115;-86
2022/10/05 00:47:25;;;;;;;8.45;5.90;;;15.50;99.90;;;;;;5100133;27;20454;-88
2022/10/05 00:49:54;;;;;;;8.20;6.30;;;;;;;;;;5116776;27;20089;-87
2022/10/05 00:52:57;;;;;;;6.47;5.85;;;15.40;99.90;;;;;;5133860;27;20054;-84
2022/10/05 00:55:29;;;;;;;6.72;5.47;;;;;;;;;;5099620;27;20050;-83
2022/10/05 00:58:22;;;;;;;7.25;5.53;;;15.30;99.90;;;;;;5099997;27;20130;-83
2022/10/05 01:01:00;;;;;;;8.05;5.72;;;15.40;99.90;;;;;;5099591;27;20074;-84
2022/10/05 01:03:34;;;;;;;9.63;6.32;;;15.40;99.90;;;;;;5116499;27;20055;-83
2022/10/05 01:06:03;;;;;;;10.85;5.55;;;;;;;;;;5099487;27;20050;-79
2022/10/05 01:08:29;;;;;;;9.25;6.45;;;;;;;;;;5133563;27;20054;-82
2022/10/05 01:10:55;;;;;;;11.98;6.03;;;;;;;;;;5099346;27;20042;-82
2022/10/05 01:13:39;;;;;;;11.32;6.97;;;15.30;99.90;;;;;;5132986;27;20395;-82
2022/10/05 01:16:05;;;;;;;8.52;5.25;;;;;;;;;;5116296;27;20047;-81
2022/10/05 01:19:15;;;;;;;9.80;5.50;;;15.10;99.90;;;;;;5099581;27;20046;-84
2022/10/05 01:21:59;;;;;;;6.40;4.82;;;15.40;99.90;;;;;;5116595;27;20497;-83
2022/10/05 01:24:47;;;;;;;7.80;5.55;;;15.40;99.90;;;;;;5116486;27;20051;-83
2022/10/05 01:27:36;;;;;;;6.30;4.95;;;15.30;99.90;;;;;;5099254;27;20047;-82
2022/10/05 01:30:10;;;;;;;7.85;5.13;;;15.30;99.90;;;;;;5099097;28;20086;-81
2022/10/05 01:33:10;;;;;;;9.63;4.90;;;15.30;99.90;;;;;;5132560;27;20406;-83
2022/10/05 01:35:48;;;;;;;8.23;6.05;;;15.30;99.90;;;;;;5130528;28;20089;-82
2022/10/05 01:38:26;;;;;;;6.60;4.28;;;15.40;99.90;;;;;;5130413;28;20058;-84
2022/10/05 01:41:09;;;;;;;7.50;5.10;;;15.30;99.90;;;;;;5130327;28;20587;-82
2022/10/05 01:43:35;;;;;;;6.35;5.30;;;;;;;;;;5130312;28;20040;-83
2022/10/05 01:46:24;;;;;;;7.50;5.32;;;15.30;99.90;;;;;;5113242;28;20131;-83
2022/10/05 01:49:03;;;;;;;9.82;5.47;;;15.40;99.90;;;;;;5113125;28;20126;-82
2022/10/05 01:52:04;;;;;;;8.32;5.22;;;15.30;99.90;;;;;;5113121;28;20388;-81
2022/10/05 01:54:35;;;;;;;7.15;4.97;;;15.30;99.90;;;;;;5131336;28;20118;-82
2022/10/05 01:57:21;;;;;;;9.40;6.32;;;15.50;99.90;;;;;;5112978;28;20039;-83
2022/10/05 02:00:06;;;;;;;9.52;6.28;;;15.20;99.90;;;;;;5131223;27;20547;-85
2022/10/05 02:02:37;;;;;;;10.23;6.43;;;15.10;99.90;;;;;;5131148;27;20079;-83
2022/10/05 02:05:25;;;;;;;10.23;6.97;;;15.30;99.90;;;;;;5130259;28;20086;-83
2022/10/05 02:08:01;;;;;;;11.90;6.82;;;15.20;99.90;;;;;;5113071;28;20083;-83
2022/10/05 02:10:29;;;;;;;10.73;6.40;;;15.10;99.90;;;;;;5129734;28;20043;-84
2022/10/05 02:13:01;;;;;;;7.95;6.65;;;15.30;99.90;;;;;;5130007;28;20483;-84
2022/10/05 02:15:39;;;;;;;12.27;7.05;;;15.10;99.90;;;;;;5112612;28;20069;-84
2022/10/05 02:18:16;;;;;;;9.18;6.53;;;15.20;99.90;;;;;;5112542;28;20068;-83
2022/10/05 02:20:43;;;;;;;9.00;6.97;;;15.10;99.90;;;;;;5112796;28;20051;-84
2022/10/05 02:23:19;;;;;;;9.32;6.00;;;15.20;99.90;;;;;;5112802;28;20479;-84
2022/10/05 02:25:47;;;;;;;8.18;7.03;;;15.20;99.90;;;;;;5129488;28;20047;-83
2022/10/05 02:28:25;;;;;;;8.93;6.97;;;15.20;99.90;;;;;;5129438;28;20042;-84
2022/10/05 02:31:00;;;;;;;11.27;7.05;;;15.40;99.90;;;;;;5129216;28;20082;-85
2022/10/05 02:33:28;;;;;;;11.90;6.72;;;15.20;99.90;;;;;;5112654;28;20048;-84
2022/10/05 02:36:11;;;;;;;8.30;6.18;;;15.20;99.90;;;;;;5112457;28;20054;-83
2022/10/05 02:38:40;;;;;;;10.10;6.82;;;;;;;;;;5129221;28;20043;-84
2022/10/05 02:41:17;;;;;;;11.00;7.25;;;15.20;99.90;;;;;;5129436;28;20088;-84
2022/10/05 02:43:43;;;;;;;10.70;6.68;;;;;;;;;;5118452;28;20047;-88
2022/10/05 02:47:10;;;;;;;11.68;6.18;;;15.30;99.90;;;;;;5115422;28;20381;-87
2022/10/05 02:49:59;;;;;;;10.10;6.38;;;15.20;99.90;;;;;;5056896;28;20140;-87
2022/10/05 02:52:55;;;;;;;9.60;6.35;;;14.90;99.90;;;;;;5041049;28;20083;-86
2022/10/05 02:55:29;;;;;;;10.85;6.65;;;14.80;99.90;;;;;;5057146;28;20048;-87
2022/10/05 02:58:24;;;;;;;11.50;7.13;;;15.20;99.90;;;;;;5040259;28;20094;-86
2022/10/05 03:00:57;;;;;;;;;;;15.20;99.90;;;;;;5057269;28;20077;-87
2022/10/05 03:03:34;;;;;;;8.52;5.82;;;15.20;99.90;;;;;;5056672;28;19924;-87
2022/10/05 03:06:04;;;;;;;8.52;5.57;;;15.20;99.90;;;;;;5040237;28;20056;-88
2022/10/05 03:08:49;;;;;;;7.80;5.60;;;15.10;99.90;;;;;;5056992;28;20044;-87
2022/10/05 03:11:52;;;;;;;6.35;5.07;;;15.00;99.90;;;;;;5056747;28;20075;-87
2022/10/05 03:14:25;;;;;;;7.97;5.85;;;14.90;99.90;;;;;;5040040;28;20187;-86
2022/10/05 03:17:08;;;;;;;9.57;7.25;;;15.30;99.90;;;;;;5040008;28;20044;-87
2022/10/05 03:20:09;;;;;;;11.13;5.30;;;15.20;99.90;;;;;;5056806;28;20060;-87
2022/10/05 03:22:51;;;;;;;8.93;6.65;;;15.30;99.90;;;;;;4997319;28;20085;-86
2022/10/05 03:25:50;;;;;;;7.75;5.70;;;15.20;99.90;;;;;;5024577;28;20068;-81
2022/10/05 03:28:35;;;;;;;7.38;5.05;;;15.20;99.90;;;;;;5016816;28;20058;-79
2022/10/05 03:31:15;;;;;;;8.77;5.53;;;15.10;99.90;;;;;;5016365;28;20571;-80
2022/10/05 03:33:51;;;;;;;6.20;4.72;;;15.20;99.90;;;;;;5016935;28;20505;-82
2022/10/05 03:36:37;;;;;;;11.50;5.20;;;15.30;99.90;;;;;;5016700;28;20045;-80
2022/10/05 03:39:13;;;;;;;5.55;4.85;;;15.20;99.90;;;;;;5016632;28;20050;-88
2022/10/05 03:41:56;;;;;;;8.15;5.43;;;15.20;99.90;;;;;;5000086;28;20103;-88
2022/10/05 03:44:43;;;;;;;7.15;4.85;;;15.20;99.90;;;;;;5016400;28;20068;-88
2022/10/05 03:47:34;;;;;;;5.93;5.00;;;15.40;99.90;;;;;;5016474;28;20057;-87
2022/10/05 03:50:22;;;;;;;8.15;4.95;;;14.90;99.90;;;;;;5000289;28;20120;-88
2022/10/05 03:52:53;;;;;;;10.90;5.50;;;15.30;99.90;;;;;;5016115;28;20057;-86
2022/10/05 03:55:48;;;;;;;5.93;5.07;;;15.30;99.90;;;;;;5015175;28;20041;-87
2022/10/05 03:58:57;;;;;;;10.45;5.25;;;15.20;99.90;;;;;;5016186;28;20140;-89
2022/10/05 04:01:30;;;;;;;6.43;5.20;;;15.10;99.90;;;;;;5096465;28;20138;-88
2022/10/05 04:04:03;;;;;;;9.20;3.85;;;15.40;99.90;;;;;;5114017;28;20032;-88
2022/10/05 04:06:36;;;;;;;9.25;4.65;;;15.10;99.90;;;;;;5113882;28;20134;-87
2022/10/05 04:09:12;;;;;;;7.93;4.93;;;15.30;99.90;;;;;;5113844;28;20119;-84
2022/10/05 04:11:49;;;;;;;6.85;4.18;;;15.00;99.90;;;;;;5113721;28;20047;-85
2022/10/05 04:14:35;;;;;;;12.73;4.50;;;15.00;99.90;;;;;;5096670;28;20039;-84
2022/10/05 04:17:32;;;;;;;6.18;4.35;;;15.10;99.90;;;;;;5096699;28;20043;-83
2022/10/05 04:20:25;;;;;;;8.48;4.28;;;15.10;99.90;;;;;;5108817;28;20117;-84
2022/10/05 04:22:51;;;;;;;4.95;3.75;;;;;;;;;;5113598;28;20126;-85
2022/10/05 04:25:25;;;;;;;6.30;4.53;;;15.10;99.90;;;;;;5097291;28;20139;-83
2022/10/05 04:28:05;;;;;;;5.68;4.55;;;15.10;99.90;;;;;;5096484;28;20510;-84
2022/10/05 04:30:33;;;;;;;7.32;4.07;;;15.10;99.90;;;;;;5113175;28;20044;-84
2022/10/05 04:32:59;;;;;;;4.80;4.30;;;15.10;99.90;;;;;;5113173;28;20059;-84
2022/10/05 04:35:37;;;;;;;4.43;4.03;;;15.20;99.90;;;;;;5113489;28;20517;-84
2022/10/05 04:38:25;;;;;;;6.13;4.22;;;15.20;99.90;;;;;;5096200;28;20050;-83
2022/10/05 04:41:22;;;;;;;9.10;4.43;;;15.00;99.90;;;;;;5096325;28;20089;-84
2022/10/05 04:44:00;;;;;;;9.55;3.92;;;15.10;99.90;;;;;;5115248;28;20039;-84
2022/10/05 04:47:00;;;;;;;7.75;4.15;;;15.00;99.90;;;;;;5114641;28;20122;-84
2022/10/05 04:49:48;;;;;;;5.68;4.10;;;15.20;99.90;;;;;;5114490;28;20043;-84
2022/10/05 04:52:41;;;;;;;7.43;4.53;;;15.10;99.90;;;;;;5112881;28;20047;-84
2022/10/05 04:55:38;;;;;;;6.90;4.10;;;15.20;99.90;;;;;;5095806;28;20051;-84
2022/10/05 04:58:34;;;;;;;5.15;4.65;;;15.20;99.90;;;;;;5113900;28;20048;-83
2022/10/05 05:01:03;;;;;;;13.63;4.38;;;15.00;99.90;;;;;;5112680;28;20173;-83
2022/10/05 05:03:39;;;;;;;6.88;6.07;;;15.10;99.90;;;;;;5112769;28;20040;-85
2022/10/05 05:06:14;;;;;;;8.35;5.20;;;15.10;99.90;;;;;;5112488;28;20040;-84
2022/10/05 05:08:56;;;;;;;6.75;5.53;;;15.10;99.90;;;;;;5096031;28;20395;-83
2022/10/05 05:11:44;;;;;;;9.30;5.68;;;15.00;99.90;;;;;;5112642;28;20053;-82
2022/10/05 05:14:28;;;;;;;8.85;5.50;;;15.00;99.90;;;;;;5112661;28;20079;-85
2022/10/05 05:17:33;;;;;;;9.85;6.78;;;15.10;99.90;;;;;;5114120;28;20058;-82
2022/10/05 05:20:24;;;;;;;10.80;6.10;;;15.00;99.90;;;;;;5071358;28;20066;-85
2022/10/05 05:23:16;;;;;;;8.20;5.90;;;15.30;99.90;;;;;;5054697;28;20493;-86
2022/10/05 05:26:20;;;;;;;10.65;5.78;;;15.00;99.90;;;;;;5049907;28;20066;-85
2022/10/05 05:29:04;;;;;;;10.32;5.88;;;15.20;99.90;;;;;;5056257;28;20052;-86
2022/10/05 05:31:48;;;;;;;;;;;15.10;99.90;;;;;;5054717;28;20053;-88
2022/10/05 05:34:26;;;;;;;7.40;6.22;;;15.10;99.90;;;;;;5054405;28;19927;-87
2022/10/05 05:37:21;;;;;;;10.02;6.15;;;15.10;99.90;;;;;;5054627;28;20060;-87
2022/10/05 05:40:44;;;;;;;9.48;5.45;;;14.90;99.90;;;;;;5054528;28;20044;-87
2022/10/05 05:43:33;;;;;;;8.50;5.22;;;15.10;99.90;;;;;;4972251;28;20523;-85
2022/10/05 05:46:07;;;;;;;8.80;6.07;;;15.00;99.90;;;;;;4956439;28;20558;-84
2022/10/05 05:48:38;;;;;;;7.93;5.97;;;15.00;99.90;;;;;;4956325;28;20133;-83
2022/10/05 05:51:04;;;;;;;11.52;6.85;;;14.60;99.90;;;;;;4940436;28;20050;-80
2022/10/05 05:53:33;;;;;;;5.97;4.90;;;15.20;99.90;;;;;;4955997;28;20101;-81
2022/10/05 05:56:14;;;;;;;10.15;6.20;;;15.00;99.90;;;;;;4965951;28;20425;-83
2022/10/05 05:58:58;;;;;;;9.23;6.15;;;14.80;99.90;;;;;;5014197;28;20057;-83
2022/10/05 06:01:24;;;;;;;10.13;6.50;;;;;;;;;;5014321;28;20069;-80
2022/10/05 06:03:56;;;;;;;8.02;6.03;;;15.10;99.90;;;;;;5014388;28;20284;-80
2022/10/05 06:06:34;;;;;;;8.18;5.25;;;15.00;99.90;;;;;;5014207;28;20520;-80
2022/10/05 06:09:03;;;;;;;9.68;5.03;;;15.10;99.90;;;;;;5015157;28;20076;-79
2022/10/05 06:11:37;;;;;;;8.25;5.63;;;14.60;99.90;;;;;;4998305;28;20054;-79
2022/10/05 06:14:21;;;;;;;7.55;5.70;;;14.70;99.90;;;;;;5080948;28;20112;-81
2022/10/05 06:16:54;;;;;;;8.60;5.50;;;14.90;99.90;;;;;;5095272;28;20042;-78
2022/10/05 06:19:22;;;;;;;9.02;6.22;;;14.80;99.90;;;;;;5115186;28;20565;-79
2022/10/05 06:22:04;;;;;;;8.35;5.95;;;15.00;99.90;;;;;;5115864;28;20075;-80
2022/10/05 06:25:05;;;;;;;6.85;5.03;;;15.00;99.90;;;;;;5098906;28;20039;-78
2022/10/05 06:27:36;;;;;;;8.80;5.55;;;15.00;99.90;;;;;;5057776;28;20063;-81
2022/10/05 06:30:14;;;;;;;8.88;5.90;;;15.00;99.90;;;;;;5040685;28;20139;-81
2022/10/05 06:32:57;;;;;;;6.10;5.03;;;14.90;99.90;;;;;;5040272;28;20052;-79
2022/10/05 06:35:26;;;;;;;5.93;5.07;;;15.00;99.90;;;;;;5057319;28;20492;-81
2022/10/05 06:38:23;;;;;;;6.60;5.88;;;15.00;99.90;;;;;;5057546;28;20048;-80
2022/10/05 06:40:52;;;;;;;6.65;4.93;;;15.10;99.90;;;;;;5040942;28;20458;-81
2022/10/05 06:43:35;;;;;;;6.43;5.32;;;15.00;99.90;;;;;;5057323;28;20047;-79
2022/10/05 06:46:21;;;;;;;7.53;5.57;;;15.00;99.90;;;;;;5057163;28;20052;-80
2022/10/05 06:49:14;;;;;;;14.50;6.07;;;15.30;99.90;;;;;;5057103;28;20044;-80
2022/10/05 06:51:39;;;;;;;6.35;5.07;;;15.10;99.90;;;;;;5057313;28;20067;-82
2022/10/05 06:54:42;;;;;;;7.60;5.60;;;15.20;99.90;;;;;;5058017;28;20123;-82
2022/10/05 06:57:31;;;;;;;18.27;5.32;;;15.00;99.90;;;;;;5040173;28;20522;-79
2022/10/05 07:00:18;;;;;;;14.15;6.00;;;15.30;99.90;;;;;;5040229;28;20040;-79
2022/10/05 07:03:02;;;;;;;11.07;5.47;;;15.00;99.90;;;;;;5042354;28;20051;-80
2022/10/05 07:05:33;;;;;;;9.35;5.18;;;15.20;99.90;;;;;;5115223;28;20043;-78
2022/10/05 07:08:03;;;;;;;9.75;5.18;;;15.00;99.90;;;;;;5098832;28;20387;-78
2022/10/05 07:10:45;;;;;;;10.27;5.30;;;14.90;99.90;;;;;;5115199;28;20093;-79
2022/10/05 07:13:29;;;;;;;5.75;4.88;;;15.10;99.90;;;;;;5097921;28;20180;-81
2022/10/05 07:16:01;;;;;;;8.13;5.25;;;15.20;99.90;;;;;;5097909;28;20043;-83
2022/10/05 07:18:48;;;;;;;6.55;4.88;;;15.10;99.90;;;;;;5114743;28;20085;-84
2022/10/05 07:21:48;;;;;;;8.45;5.07;;;15.10;99.90;;;;;;5097741;28;20100;-83
2022/10/05 07:24:39;;;;;;;6.47;4.45;;;15.10;99.90;;;;;;5116102;28;20372;-81
2022/10/05 07:27:20;;;;;;;9.02;5.10;;;15.20;99.90;;;;;;5114945;28;20562;-82
2022/10/05 07:30:01;;;;;;;9.82;4.35;;;15.10;99.90;;;;;;5114441;28;20046;-83
2022/10/05 07:32:32;;;;;;;5.22;4.47;;;15.20;99.90;;;;;;5114113;28;20056;-80
2022/10/05 07:37:53;;;;;;;7.07;4.47;;;15.10;99.90;;;;;;5114421;28;20484;-82
2022/10/05 07:38:01;;;;;;;11.60;4.63;;;15.10;99.90;;;;;;5115073;28;20143;-82
2022/10/05 07:40:39;;;;;;;13.73;3.90;;;15.10;99.90;;;;;;5114332;28;20484;-84
2022/10/05 07:43:05;;;;;;;6.45;4.13;;;;;;;;;;5114207;28;20039;-85
2022/10/05 07:45:46;;;;;;;4.78;3.70;;;15.30;99.90;;;;;;5097317;28;20051;-85
2022/10/05 07:48:21;;;;;;;6.20;4.10;;;15.40;99.90;;;;;;5113944;28;20097;-84
2022/10/05 07:51:02;;;;;;;8.63;4.15;;;15.30;99.90;;;;;;5097348;28;20043;-86
2022/10/05 07:53:36;;;;;;;3.88;3.33;;;15.40;99.90;;;;;;5097006;28;20050;-84
2022/10/05 07:56:14;;;;;;;3.85;2.97;;;15.50;99.90;;;;;;5114051;28;20047;-86
2022/10/05 07:58:45;;;;;;;6.18;3.80;;;15.50;99.90;;;;;;5097222;28;20404;-86
2022/10/05 08:01:23;;;;;;;4.07;3.58;;;15.50;99.90;;;;;;5113944;28;20040;-83
2022/10/05 08:03:54;;;;;;;3.92;3.15;;;15.40;99.90;;;;;;5096958;28;20043;-83
2022/10/05 08:06:34;;;;;;;3.50;3.20;;;15.50;99.90;;;;;;5096918;28;20043;-82
2022/10/05 08:09:11;;;;;;;3.67;3.28;;;15.30;99.90;;;;;;5114062;28;20047;-84
2022/10/05 08:11:51;;;;;;;4.85;3.13;;;15.40;99.90;;;;;;5113682;28;20126;-81
2022/10/05 08:14:20;;;;;;;6.28;2.58;;;15.50;99.90;;;;;;5113652;28;20069;-82
2022/10/05 08:16:50;;;;;;;4.30;2.70;;;15.20;99.90;;;;;;5113878;28;20480;-84
2022/10/05 08:19:23;;;;;;;4.93;2.63;;;15.50;99.90;;;;;;5113927;28;20043;-84
2022/10/05 08:21:59;;;;;;;3.95;2.65;;;15.40;99.90;;;;;;5113570;28;20065;-84
2022/10/05 08:24:50;;;;;;;2.17;1.98;;;15.50;99.90;;;;;;5096992;28;20441;-84
2022/10/05 08:27:27;;;;;;;4.00;2.30;;;15.50;99.90;;;;;;5096539;28;20047;-82
2022/10/05 08:30:09;;;;;;;2.13;1.90;;;15.50;99.90;;;;;;5113394;28;20047;-82
2022/10/05 08:32:49;;;;;;;3.75;1.90;;;15.60;99.90;;;;;;5096207;28;20577;-83
2022/10/05 08:35:44;;;;;;;2.50;2.00;;;15.40;99.90;;;;;;5096689;28;20044;-81
2022/10/05 08:38:16;;;;;;;2.03;1.83;;;15.60;99.90;;;;;;5096503;28;20130;-83
2022/10/05 08:41:06;;;;;;;2.40;1.98;;;15.80;99.90;;;;;;5112700;28;20043;-84
2022/10/05 08:43:32;;;;;;;3.55;1.55;;;;;;;;;;5096551;28;20104;-83
2022/10/05 08:46:30;;;;;;;2.95;1.98;;;15.70;99.90;;;;;;5113151;28;20432;-82
2022/10/05 08:49:15;;;;;;;4.93;1.67;;;15.80;99.90;;;;;;5096366;28;20039;-87
2022/10/05 08:52:19;;;;;;;5.55;1.45;;;16.00;99.90;;;;;;5096115;28;20040;-84
2022/10/05 08:54:51;;;;;;;3.53;1.58;;;16.10;99.90;;;;;;5096058;28;20044;-87
2022/10/05 08:57:45;;;;;;;4.10;1.90;;;16.20;99.90;;;;;;5096226;28;20044;-86
2022/10/05 09:00:24;;;;;;;;;;;16.00;99.90;;;;;;5096292;28;20044;-85
2022/10/05 09:03:04;;;;;;;2.55;1.85;;;16.10;99.90;;;;;;5113374;28;19919;-87
2022/10/05 09:05:32;;;;;;;3.60;1.75;;;16.00;99.90;;;;;;5113270;28;20036;-86
2022/10/05 09:08:04;;;;;;;3.67;1.70;;;16.00;99.90;;;;;;5113093;28;20047;-87
2022/10/05 09:10:40;;;;;;;3.33;2.05;;;16.10;99.90;;;;;;5096126;28;20437;-87
2022/10/05 09:13:34;;;;;;;2.38;1.63;;;16.30;99.90;;;;;;5095958;28;20079;-88
2022/10/05 09:16:20;;;;;;;2.58;1.60;;;16.40;99.90;;;;;;5038084;28;20052;-86
2022/10/05 09:19:11;;;;;;;5.07;1.88;;;16.20;99.90;;;;;;5037821;28;20048;-88
2022/10/05 09:22:13;;;;;;;3.88;1.48;;;16.20;99.90;;;;;;5038111;28;20041;-88
2022/10/05 09:24:51;;;;;;;2.53;2.33;;;16.40;99.90;;;;;;5037713;28;20055;-89
2022/10/05 09:27:18;;;;;;;3.28;2.30;;;16.50;99.90;;;;;;5054779;28;20052;-80
2022/10/05 09:30:04;;;;;;;2.03;1.90;;;16.10;99.90;;;;;;5038831;28;20476;-81
2022/10/05 09:32:57;;;;;;;3.47;2.42;;;16.50;99.90;;;;;;5054212;28;20045;-79
2022/10/05 09:35:41;;;;;;;5.22;2.60;;;16.60;99.90;;;;;;5037723;28;20147;-78
2022/10/05 09:38:12;;;;;;;3.22;2.55;;;16.50;99.90;;;;;;5038045;28;20052;-78
2022/10/05 09:40:46;;;;;;;3.53;2.97;;;16.60;99.90;;;;;;5054808;28;20095;-77
2022/10/05 09:43:42;;;;;;;3.58;2.40;;;16.20;99.90;;;;;;5054304;28;20061;-79
2022/10/05 09:46:45;;;;;;;4.63;2.72;;;16.20;99.90;;;;;;5054442;28;20485;-84
2022/10/05 09:49:28;;;;;;;9.15;2.97;;;16.30;99.90;;;;;;5054174;28;20627;-79
2022/10/05 09:52:13;;;;;;;3.17;2.78;;;16.30;99.90;;;;;;5052038;28;20134;-80
2022/10/05 09:55:01;;;;;;;8.90;2.92;;;16.40;99.90;;;;;;5116403;28;20051;-80
2022/10/05 09:57:46;;;;;;;7.82;3.30;;;16.60;99.90;;;;;;5099430;28;20039;-79
2022/10/05 10:00:20;;;;;;;3.03;2.72;;;16.70;99.90;;;;;;5099809;28;20044;-79
2022/10/05 10:03:36;;;;;;;5.70;3.35;;;16.30;99.90;;;;;;5116270;28;20126;-78
2022/10/05 10:06:29;;;;;;;3.00;2.60;;;16.80;99.90;;;;;;5058296;28;20111;-78
2022/10/05 10:09:00;;;;;;;4.93;2.88;;;16.70;99.90;;;;;;5041243;28;20086;-80
2022/10/05 10:11:46;;;;;;;4.82;2.60;;;16.80;99.90;;;;;;5057769;28;20052;-79
2022/10/05 10:14:22;;;;;;;5.70;3.33;;;16.70;99.90;;;;;;5041341;28;20533;-78
2022/10/05 10:17:08;;;;;;;3.42;2.38;;;16.80;99.90;;;;;;5053398;28;20393;-78
2022/10/05 10:20:00;;;;;;;7.13;4.40;;;16.80;99.90;;;;;;4975947;28;20142;-81
2022/10/05 10:23:22;;;;;;;2.40;2.20;;;16.90;99.90;;;;;;4959300;28;20538;-78
2022/10/05 10:26:05;;;;;;;3.92;2.50;;;16.70;99.90;;;;;;4921161;29;20541;-81
2022/10/05 10:28:39;;;;;;;5.80;3.08;;;16.80;99.90;;;;;;4936980;29;20047;-79
2022/10/05 10:31:42;;;;;;;9.77;2.53;;;16.60;99.90;;;;;;4921150;29;20444;-80
2022/10/05 10:34:26;;;;;;;3.28;2.28;;;16.70;99.90;;;;;;4921239;29;20083;-78
2022/10/05 10:37:15;;;;;;;3.90;3.05;;;16.50;99.90;;;;;;4921114;28;20405;-78
2022/10/05 10:40:19;;;;;;;5.20;3.08;;;16.80;99.90;;;;;;4920951;29;20062;-85
2022/10/05 10:43:00;;;;;;;5.43;2.75;;;16.90;99.90;;;;;;4957415;28;20061;-86
2022/10/05 10:45:54;;;;;;;2.80;2.60;;;16.90;99.90;;;;;;4994805;28;20058;-81
2022/10/05 10:48:29;;;;;;;4.93;2.88;;;16.60;99.90;;;;;;4962517;28;20042;-86
2022/10/05 10:51:12;;;;;;;4.68;3.13;;;16.60;99.90;;;;;;4962207;28;20102;-86
2022/10/05 10:54:08;;;;;;;5.20;3.00;;;16.60;99.90;;;;;;4978411;28;20058;-84
2022/10/05 10:56:57;;;;;;;3.28;2.60;;;16.30;99.90;;;;;;5015305;28;20065;-81
2022/10/05 10:59:41;;;;;;;5.78;3.70;;;16.50;99.90;;;;;;5072452;28;20089;-79
2022/10/05 11:02:36;;;;;;;6.88;3.33;;;16.50;99.90;;;;;;5115267;28;20051;-82
2022/10/05 11:05:39;;;;;;;3.75;3.45;;;16.50;99.90;;;;;;5098926;28;20036;-78
2022/10/05 11:08:20;;;;;;;3.83;3.05;;;16.40;99.90;;;;;;5115278;28;20048;-77
2022/10/05 11:11:34;;;;;;;7.00;2.80;;;16.70;99.90;;;;;;5114807;28;20463;-79
2022/10/05 11:14:35;;;;;;;3.60;3.30;;;16.40;99.90;;;;;;5098331;28;20051;-80
2022/10/05 11:17:22;;;;;;;3.65;3.05;;;16.50;99.90;;;;;;5114887;28;20075;-77
2022/10/05 11:20:05;;;;;;;4.65;3.38;;;16.70;99.90;;;;;;5114727;28;20586;-78
2022/10/05 11:22:43;;;;;;;3.55;3.08;;;16.70;99.90;;;;;;5097949;28;20039;-81
2022/10/05 11:25:43;;;;;;;3.22;2.92;;;16.70;99.90;;;;;;5097742;28;20040;-77
2022/10/05 11:28:30;;;;;;;4.15;3.63;;;16.60;99.90;;;;;;5097575;28;20051;-77
2022/10/05 11:30:56;;;;;;;3.88;3.05;;;16.60;99.90;;;;;;5114362;28;20044;-77
2022/10/05 11:33:22;;;;;;;3.35;3.05;;;;;;;;;;5114262;28;20051;-77
2022/10/05 11:36:14;;;;;;;3.78;3.33;;;16.50;99.90;;;;;;5115122;28;20056;-78
2022/10/05 11:39:02;;;;;;;5.32;2.90;;;16.60;99.90;;;;;;5114642;28;20388;-80
2022/10/05 11:41:49;;;;;;;3.65;2.72;;;16.70;99.90;;;;;;5114506;28;20451;-81
2022/10/05 11:44:34;;;;;;;6.53;2.47;;;16.50;99.90;;;;;;5114849;28;20043;-79
2022/10/05 11:47:15;;;;;;;3.72;2.42;;;16.60;99.90;;;;;;5115374;28;20144;-84
2022/10/05 11:50:05;;;;;;;3.53;2.63;;;16.50;99.90;;;;;;5097371;28;20042;-78
2022/10/05 11:52:31;;;;;;;2.83;1.92;;;;;;;;;;5098206;28;20044;-78
2022/10/05 11:55:19;;;;;;;2.40;2.20;;;16.60;99.90;;;;;;5097144;28;20039;-78
2022/10/05 11:57:50;;;;;;;2.10;1.90;;;16.60;99.90;;;;;;5097328;28;20452;-78
2022/10/05 12:00:16;;;;;;;2.72;2.15;;;;;;;;;;5114189;28;20100;-82
2022/10/05 12:03:02;;;;;;;5.53;2.53;;;16.50;99.90;;;;;;5097102;28;20043;-79
2022/10/05 12:05:45;;;;;;;2.78;2.40;;;16.30;99.90;;;;;;5113892;28;20047;-80
2022/10/05 12:08:50;;;;;;;3.92;2.78;;;16.60;99.90;;;;;;5113790;28;20044;-79
2022/10/05 12:11:33;;;;;;;10.35;2.28;;;16.50;99.90;;;;;;5038759;28;20056;-78
2022/10/05 12:14:32;;;;;;;3.47;2.10;;;16.50;99.90;;;;;;5039250;28;20396;-85
2022/10/05 12:17:12;;;;;;;4.65;2.25;;;16.60;99.90;;;;;;4956872;28;20051;-78
2022/10/05 12:19:42;;;;;;;3.85;2.00;;;16.50;99.90;;;;;;4957559;28;20384;-84
2022/10/05 12:22:09;;;;;;;2.40;2.20;;;;;;;;;;4941758;28;20090;-79
2022/10/05 12:24:35;;;;;;;3.20;2.10;;;;;;;;;;4957375;28;20073;-79
2022/10/05 12:27:19;;;;;;;2.55;2.25;;;16.50;99.90;;;;;;4958133;28;20495;-85
2022/10/05 12:30:10;;;;;;;2.65;2.33;;;16.20;99.90;;;;;;4957443;28;20093;-82
2022/10/05 12:32:58;;;;;;;3.13;2.30;;;16.40;99.90;;;;;;4956744;28;20055;-85
2022/10/05 12:35:54;;;;;;;3.50;2.33;;;16.50;99.90;;;;;;4957153;28;20601;-82
2022/10/05 12:38:33;;;;;;;4.95;2.13;;;16.50;99.90;;;;;;4941370;28;20061;-84
2022/10/05 12:41:23;;;;;;;2.38;2.22;;;16.70;99.90;;;;;;4956996;28;20058;-83
2022/10/05 12:43:49;;;;;;;4.75;3.35;;;16.50;99.90;;;;;;4957063;28;20053;-82
2022/10/05 12:46:33;;;;;;;3.88;2.28;;;16.50;99.90;;;;;;4941218;28;20118;-84
2022/10/05 12:49:43;;;;;;;2.85;2.58;;;16.60;99.90;;;;;;4986862;28;20057;-85
2022/10/05 12:52:34;;;;;;;4.22;2.80;;;16.50;99.90;;;;;;5015458;28;20053;-85
2022/10/05 12:55:33;;;;;;;6.25;2.88;;;16.70;99.90;;;;;;5106245;28;20044;-84
2022/10/05 12:58:18;;;;;;;4.28;3.05;;;16.60;99.90;;;;;;5076377;28;20047;-83
2022/10/05 13:01:08;;;;;;;3.65;3.20;;;16.50;99.90;;;;;;5112912;28;20423;-84
2022/10/05 13:03:44;;;;;;;6.00;3.42;;;16.70;99.90;;;;;;5113183;28;20066;-83
2022/10/05 13:06:45;;;;;;;3.53;3.17;;;16.50;99.90;;;;;;5096901;28;20067;-84
2022/10/05 13:09:22;;;;;;;3.65;3.08;;;16.50;99.90;;;;;;5095861;28;20039;-82
2022/10/05 13:11:51;;;;;;;4.85;2.85;;;16.70;99.90;;;;;;5096131;28;20134;-82
2022/10/05 13:14:35;;;;;;;5.72;2.90;;;16.60;99.90;;;;;;5113027;28;20105;-83
2022/10/05 13:17:23;;;;;;;3.40;3.10;;;16.60;99.90;;;;;;5113343;28;20141;-81
2022/10/05 13:19:58;;;;;;;2.97;2.78;;;16.30;99.90;;;;;;5113203;28;20426;-79
2022/10/05 13:22:45;;;;;;;6.63;3.22;;;16.70;99.90;;;;;;5095825;28;20051;-78
2022/10/05 13:25:25;;;;;;;4.88;2.95;;;16.90;99.90;;;;;;5112848;28;20498;-79
2022/10/05 13:28:18;;;;;;;4.43;3.13;;;16.70;99.90;;;;;;5095881;28;20092;-80
2022/10/05 13:31:05;;;;;;;3.70;3.40;;;16.70;99.90;;;;;;5112835;28;20410;-81
2022/10/05 13:34:11;;;;;;;4.03;3.13;;;16.60;99.90;;;;;;5112557;28;20397;-83
2022/10/05 13:37:06;;;;;;;5.80;3.20;;;16.60;99.90;;;;;;5054385;28;20049;-80
2022/10/05 13:39:49;;;;;;;4.60;3.60;;;16.50;99.90;;;;;;4956666;28;20059;-80
2022/10/05 13:42:24;;;;;;;4.65;3.88;;;16.40;99.90;;;;;;4940608;28;20138;-79
2022/10/05 13:44:57;;;;;;;4.75;3.20;;;16.90;99.90;;;;;;4956300;28;20138;-81
2022/10/05 13:47:51;;;;;;;4.63;3.67;;;16.70;99.90;;;;;;4956415;28;20499;-82
2022/10/05 13:50:22;;;;;;;4.18;3.70;;;16.50;99.90;;;;;;4955964;28;20508;-82
2022/10/05 13:52:50;;;;;;;4.32;3.65;;;17.00;99.90;;;;;;4956208;28;20047;-81
2022/10/05 13:55:47;;;;;;;8.02;4.20;;;17.00;99.90;;;;;;4956289;28;20054;-85
2022/10/05 13:58:22;;;;;;;7.55;3.80;;;16.90;99.90;;;;;;4917918;29;20058;-84
2022/10/05 14:00:56;;;;;;;4.20;3.60;;;17.20;99.90;;;;;;4918081;29;20097;-85
2022/10/05 14:03:31;;;;;;;4.28;3.88;;;17.10;99.90;;;;;;4917992;29;20096;-81
2022/10/05 14:05:59;;;;;;;7.05;4.03;;;17.20;99.90;;;;;;4917733;28;20146;-84
2022/10/05 14:08:45;;;;;;;18.52;3.60;;;16.90;99.90;;;;;;4933790;29;20548;-84
2022/10/05 14:11:49;;;;;;;4.15;3.58;;;17.40;99.90;;;;;;4917950;29;20552;-79